createdAt,value
2023-05-10T00:00:53.476Z,100532.75
2023-05-10T00:02:57.170Z,100531.91
2023-05-10T00:05:00.899Z,100526.72
2023-05-10T00:07:05.198Z,100538.31
2023-05-10T00:09:08.870Z,100534.69
2023-05-10T00:11:12.551Z,100525.75
2023-05-10T00:13:16.621Z,100530.97
2023-05-10T00:15:20.319Z,100538.94
2023-05-10T00:17:26.594Z,100535.28
2023-05-10T00:19:31.458Z,100539.53
2023-05-10T00:21:35.707Z,100535.91
2023-05-10T00:23:40.074Z,100538.47
2023-05-10T00:25:44.162Z,100533.91
2023-05-10T00:27:48.362Z,100542.69
2023-05-10T00:29:52.400Z,100536.56
2023-05-10T00:31:56.028Z,100539.28
2023-05-10T00:34:01.182Z,100533.03
2023-05-10T00:36:04.982Z,100536.56
2023-05-10T00:38:08.992Z,100535.69
2023-05-10T00:40:13.827Z,100531.25
2023-05-10T00:42:19.645Z,100533.16
2023-05-10T00:44:23.495Z,100537.63
2023-05-10T00:46:29.631Z,100540.16
2023-05-10T00:48:36.935Z,100533.03
2023-05-10T00:50:41.995Z,100543.66
2023-05-10T00:52:45.638Z,100542.69
2023-05-10T00:54:50.034Z,100541.00
2023-05-10T00:56:54.041Z,100534.84
2023-05-10T00:58:57.735Z,100536.75
2023-05-10T01:01:02.795Z,100531.44
2023-05-10T01:03:06.609Z,100538.47
2023-05-10T01:05:10.252Z,100528.66
2023-05-10T01:07:15.201Z,100537.63
2023-05-10T01:09:19.123Z,100527.84
2023-05-10T01:11:23.103Z,100533.16
2023-05-10T01:13:35.294Z,100531.44
2023-05-10T01:15:39.518Z,100532.44
2023-05-10T01:17:46.721Z,100536.03
2023-05-10T01:19:50.234Z,100535.28
2023-05-10T01:22:04.534Z,100531.91
2023-05-10T01:24:43.191Z,100528.53
2023-05-10T01:27:14.471Z,100524.28
2023-05-10T01:30:01.408Z,100530.78
2023-05-10T01:32:21.678Z,100528.38
2023-05-10T01:34:34.498Z,100529.22
2023-05-10T01:36:45.886Z,100523.28
2023-05-10T01:38:54.024Z,100524.13
2023-05-10T01:41:10.263Z,100527.84
2023-05-10T01:43:21.876Z,100527.97
2023-05-10T01:45:31.301Z,100529.66
2023-05-10T01:47:41.065Z,100522.44
2023-05-10T01:49:48.755Z,100522.44
2023-05-10T01:51:55.937Z,100521.59
2023-05-10T01:54:03.676Z,100518.09
2023-05-10T01:56:09.783Z,100524.13
2023-05-10T01:58:17.589Z,100521.34
2023-05-10T02:00:22.664Z,100518.63
2023-05-10T02:02:30.747Z,100520.28
2023-05-10T02:04:39.657Z,100521.16
2023-05-10T02:06:45.242Z,100521.25
2023-05-10T02:08:52.159Z,100522.22
2023-05-10T02:10:58.743Z,100518.63
2023-05-10T02:13:04.326Z,100520.53
2023-05-10T02:15:09.364Z,100516.28
2023-05-10T02:17:14.161Z,100515.31
2023-05-10T02:19:19.090Z,100516.16
2023-05-10T02:21:25.082Z,100516.16
2023-05-10T02:23:28.962Z,100522.34
2023-05-10T02:25:35.001Z,100520.53
2023-05-10T02:27:39.901Z,100517.03
2023-05-10T02:29:45.446Z,100520.53
2023-05-10T02:31:49.980Z,100522.44
2023-05-10T02:33:54.076Z,100522.44
2023-05-10T02:35:58.089Z,100522.44
2023-05-10T02:38:04.121Z,100526.06
2023-05-10T02:40:09.522Z,100520.75
2023-05-10T02:42:16.002Z,100516.41
2023-05-10T02:44:21.555Z,100524.38
2023-05-10T02:46:25.892Z,100517.34
2023-05-10T02:48:30.025Z,100528.91
2023-05-10T02:50:35.765Z,100520.97
2023-05-10T02:52:45.101Z,100524.38
2023-05-10T02:54:55.039Z,100529.44
2023-05-10T02:57:00.576Z,100527.66
2023-05-10T02:59:04.069Z,100520.53
2023-05-10T03:01:08.948Z,100522.22
2023-05-10T03:03:12.274Z,100525.00
2023-05-10T03:05:15.766Z,100526.78
2023-05-10T03:07:22.371Z,100525.06
2023-05-10T03:09:26.195Z,100518.94
2023-05-10T03:11:46.465Z,100520.97
2023-05-10T03:13:59.053Z,100528.22
2023-05-10T03:16:10.476Z,100524.81
2023-05-10T03:18:20.716Z,100528.44
2023-05-10T03:20:27.994Z,100522.25
2023-05-10T03:22:34.622Z,100527.69
2023-05-10T03:24:40.082Z,100528.66
2023-05-10T03:26:46.917Z,100526.97
2023-05-10T03:28:55.690Z,100530.59
2023-05-10T03:31:00.288Z,100521.88
2023-05-10T03:33:07.476Z,100517.53
2023-05-10T03:35:15.371Z,100522.09
2023-05-10T03:37:19.213Z,100518.50
2023-05-10T03:39:23.150Z,100514.88
2023-05-10T03:41:31.861Z,100520.19
2023-05-10T03:43:36.717Z,100521.03
2023-05-10T03:45:39.945Z,100512.13
2023-05-10T03:47:43.601Z,100521.88
2023-05-10T03:49:47.046Z,100517.53
2023-05-10T03:51:50.479Z,100519.34
2023-05-10T03:53:54.065Z,100520.09
2023-05-10T03:55:58.079Z,100518.38
2023-05-10T03:58:01.503Z,100518.38
2023-05-10T04:00:07.411Z,100521.03
2023-05-10T04:02:18.058Z,100518.50
2023-05-10T04:04:22.484Z,100522.00
2023-05-10T04:06:26.921Z,100520.31
2023-05-10T04:08:31.704Z,100522.00
2023-05-10T04:10:35.957Z,100521.16
2023-05-10T04:12:39.499Z,100515.84
2023-05-10T04:14:43.128Z,100522.75
2023-05-10T04:16:48.167Z,100519.22
2023-05-10T04:18:51.675Z,100513.91
2023-05-10T04:20:55.133Z,100517.31
2023-05-10T04:22:58.417Z,100520.09
2023-05-10T04:25:01.937Z,100517.53
2023-05-10T04:27:05.625Z,100519.34
2023-05-10T04:29:09.044Z,100516.78
2023-05-10T04:31:12.736Z,100517.75
2023-05-10T04:33:17.436Z,100519.69
2023-05-10T04:35:20.965Z,100517.03
2023-05-10T04:37:24.259Z,100523.41
2023-05-10T04:39:28.769Z,100519.03
2023-05-10T04:41:32.302Z,100506.84
2023-05-10T04:43:37.596Z,100517.47
2023-05-10T04:45:40.884Z,100505.38
2023-05-10T04:47:44.566Z,100515.16
2023-05-10T04:49:49.228Z,100512.63
2023-05-10T04:51:52.575Z,100514.53
2023-05-10T04:54:05.236Z,100507.56
2023-05-10T04:56:09.532Z,100507.56
2023-05-10T04:58:12.866Z,100507.56
2023-05-10T05:00:17.385Z,100513.69
2023-05-10T05:02:20.909Z,100505.84
2023-05-10T05:04:25.286Z,100508.38
2023-05-10T05:06:29.982Z,100502.97
2023-05-10T05:08:33.336Z,100505.63
2023-05-10T05:10:36.689Z,100505.63
2023-05-10T05:12:40.140Z,100504.53
2023-05-10T05:14:43.514Z,100507.94
2023-05-10T05:16:46.728Z,100515.56
2023-05-10T05:18:50.008Z,100508.44
2023-05-10T05:20:53.246Z,100512.56
2023-05-10T05:22:57.941Z,100510.03
2023-05-10T05:25:01.713Z,100517.25
2023-05-10T05:27:05.074Z,100508.31
2023-05-10T05:29:08.295Z,100509.31
2023-05-10T05:31:11.770Z,100512.06
2023-05-10T05:33:16.471Z,100512.91
2023-05-10T05:35:19.862Z,100518.09
2023-05-10T05:37:23.650Z,100518.09
2023-05-10T05:39:28.357Z,100513.53
2023-05-10T05:41:31.624Z,100525.94
2023-05-10T05:43:37.454Z,100521.69
2023-05-10T05:45:41.729Z,100524.34
2023-05-10T05:47:45.167Z,100531.47
2023-05-10T05:49:48.512Z,100535.84
2023-05-10T05:51:51.802Z,100533.38
2023-05-10T05:53:55.213Z,100535.19
2023-05-10T05:56:00.903Z,100529.66
2023-05-10T05:58:04.231Z,100538.13
2023-05-10T06:00:08.985Z,100530.69
2023-05-10T06:02:18.395Z,100531.56
2023-05-10T06:04:22.144Z,100539.38
2023-05-10T06:06:25.556Z,100537.22
2023-05-10T06:08:28.864Z,100541.22
2023-05-10T06:10:32.675Z,100537.38
2023-05-10T06:12:37.642Z,100534.59
2023-05-10T06:14:40.625Z,100529.81
2023-05-10T06:16:43.943Z,100531.88
2023-05-10T06:18:47.364Z,100534.22
2023-05-10T06:20:52.732Z,100543.66
2023-05-10T06:22:56.457Z,100530.88
2023-05-10T06:24:59.781Z,100545.38
2023-05-10T06:27:03.337Z,100543.22
2023-05-10T06:29:08.111Z,100542.59
2023-05-10T06:31:13.027Z,100550.22
2023-05-10T06:33:17.191Z,100551.81
2023-05-10T06:35:20.597Z,100549.88
2023-05-10T06:37:24.044Z,100556.75
2023-05-10T06:39:27.447Z,100555.69
2023-05-10T06:41:30.786Z,100565.00
2023-05-10T06:43:34.109Z,100554.09
2023-05-10T06:45:38.956Z,100548.56
2023-05-10T06:47:43.457Z,100568.63
2023-05-10T06:49:47.642Z,100556.91
2023-05-10T06:51:51.802Z,100550.97
2023-05-10T06:53:55.839Z,100555.81
2023-05-10T06:56:00.072Z,100562.09
2023-05-10T06:58:07.211Z,100560.66
2023-05-10T07:00:12.595Z,100566.22
2023-05-10T07:02:18.703Z,100562.81
2023-05-10T07:04:23.228Z,100576.38
2023-05-10T07:06:33.379Z,100571.41
2023-05-10T07:08:38.449Z,100576.81
2023-05-10T07:10:44.933Z,100578.31
2023-05-10T07:12:49.875Z,100566.94
2023-05-10T07:14:56.527Z,100569.09
2023-05-10T07:17:00.973Z,100560.59
2023-05-10T07:19:07.361Z,100568.22
2023-05-10T07:21:12.110Z,100569.19
2023-05-10T07:23:16.311Z,100562.53
2023-05-10T07:25:21.138Z,100565.72
2023-05-10T07:27:28.636Z,100565.94
2023-05-10T07:29:32.936Z,100568.06
2023-05-10T07:31:36.866Z,100569.88
2023-05-10T07:33:40.381Z,100573.69
2023-05-10T07:35:45.816Z,100567.06
2023-05-10T07:37:49.676Z,100571.09
2023-05-10T07:39:53.457Z,100565.97
2023-05-10T07:41:57.649Z,100564.69
2023-05-10T07:44:01.233Z,100573.34
2023-05-10T07:46:05.048Z,100568.06
2023-05-10T07:48:08.680Z,100571.16
2023-05-10T07:50:12.642Z,100576.50
2023-05-10T07:52:17.752Z,100575.16
2023-05-10T07:54:21.775Z,100565.34
2023-05-10T07:56:28.353Z,100569.22
2023-05-10T07:58:32.192Z,100568.44
2023-05-10T08:00:36.327Z,100574.44
2023-05-10T08:02:39.973Z,100569.81
2023-05-10T08:04:43.962Z,100572.94
2023-05-10T08:06:47.781Z,100568.28
2023-05-10T08:08:54.659Z,100573.13
2023-05-10T08:10:58.368Z,100576.22
2023-05-10T08:13:01.947Z,100577.63
2023-05-10T08:15:06.031Z,100570.63
2023-05-10T08:17:09.839Z,100571.38
2023-05-10T08:19:13.640Z,100574.34
2023-05-10T08:21:17.638Z,100576.84
2023-05-10T08:23:21.610Z,100566.75
2023-05-10T08:25:26.809Z,100574.84
2023-05-10T08:27:30.454Z,100576.06
2023-05-10T08:29:46.239Z,100574.50
2023-05-10T08:31:53.807Z,100575.66
2023-05-10T08:33:57.427Z,100565.78
2023-05-10T08:36:01.124Z,100571.47
2023-05-10T08:38:04.816Z,100571.59
2023-05-10T08:40:12.007Z,100572.59
2023-05-10T08:42:21.683Z,100570.38
2023-05-10T08:44:26.538Z,100572.66
2023-05-10T08:46:31.925Z,100582.47
2023-05-10T08:48:37.108Z,100584.16
2023-05-10T08:50:42.001Z,100582.97
2023-05-10T08:52:49.705Z,100581.34
2023-05-10T08:54:53.428Z,100591.25
2023-05-10T08:56:57.115Z,100592.47
2023-05-10T08:59:02.547Z,100591.44
2023-05-10T09:01:07.431Z,100593.75
2023-05-10T09:03:11.636Z,100598.59
2023-05-10T09:05:17.291Z,100592.91
2023-05-10T09:07:22.261Z,100588.41
2023-05-10T09:09:27.689Z,100593.97
2023-05-10T09:11:31.576Z,100591.25
2023-05-10T09:13:35.427Z,100590.50
2023-05-10T09:15:40.952Z,100586.97
2023-05-10T09:17:46.383Z,100581.22
2023-05-10T09:19:50.116Z,100581.06
2023-05-10T09:21:53.869Z,100584.50
2023-05-10T09:23:57.528Z,100579.16
2023-05-10T09:26:08.041Z,100584.63
2023-05-10T09:28:12.488Z,100587.22
2023-05-10T09:30:19.762Z,100594.06
2023-05-10T09:32:38.018Z,100601.91
2023-05-10T09:34:43.426Z,100597.53
2023-05-10T09:36:59.168Z,100591.69
2023-05-10T09:39:02.846Z,100606.28
2023-05-10T09:41:06.701Z,100597.50
2023-05-10T09:43:12.012Z,100604.13
2023-05-10T09:45:15.818Z,100604.13
2023-05-10T09:47:20.295Z,100600.19
2023-05-10T09:49:25.391Z,100601.28
2023-05-10T09:51:29.249Z,100605.94
2023-05-10T09:53:33.084Z,100604.56
2023-05-10T09:55:45.844Z,100603.03
2023-05-10T09:57:50.135Z,100597.41
2023-05-10T09:59:55.544Z,100602.91
2023-05-10T10:02:00.504Z,100616.31
2023-05-10T10:04:06.412Z,100610.19
2023-05-10T10:06:22.893Z,100616.16
2023-05-10T10:08:33.249Z,100620.06
2023-05-10T10:10:39.978Z,100613.44
2023-05-10T10:12:44.154Z,100615.72
2023-05-10T10:14:49.152Z,100616.06
2023-05-10T10:17:06.797Z,100615.84
2023-05-10T10:19:13.141Z,100609.53
2023-05-10T10:21:19.327Z,100608.88
2023-05-10T10:23:22.951Z,100608.38
2023-05-10T10:25:27.837Z,100602.38
2023-05-10T10:27:37.038Z,100611.78
2023-05-10T10:29:50.647Z,100606.91
2023-05-10T10:32:04.454Z,100602.41
2023-05-10T10:34:10.978Z,100603.31
2023-05-10T10:36:15.545Z,100602.59
2023-05-10T10:38:20.602Z,100580.09
2023-05-10T10:40:35.164Z,100600.03
2023-05-10T10:42:48.301Z,100599.13
2023-05-10T10:44:52.006Z,100596.91
2023-05-10T10:47:03.740Z,100596.28
2023-05-10T10:49:12.328Z,100601.06
2023-05-10T10:51:16.438Z,100588.72
2023-05-10T10:53:21.441Z,100592.75
2023-05-10T10:55:27.718Z,100603.41
2023-05-10T10:57:34.635Z,100604.66
2023-05-10T10:59:38.356Z,100591.75
2023-05-10T11:01:45.643Z,100599.22
2023-05-10T11:04:22.608Z,100601.78
2023-05-10T11:06:32.902Z,100605.97
2023-05-10T11:08:45.568Z,100603.13
2023-05-10T11:11:08.127Z,100604.38
2023-05-10T11:13:12.446Z,100613.53
2023-05-10T11:15:16.462Z,100612.38
2023-05-10T11:17:27.235Z,100610.25
2023-05-10T11:19:30.980Z,100609.06
2023-05-10T11:21:35.574Z,100611.69
2023-05-10T11:23:52.641Z,100612.78
2023-05-10T11:25:57.278Z,100604.97
2023-05-10T11:28:05.133Z,100604.31
2023-05-10T11:30:10.337Z,100603.06
2023-05-10T11:32:15.087Z,100598.31
2023-05-10T11:34:28.360Z,100598.31
2023-05-10T11:36:36.190Z,100591.41
2023-05-10T11:38:39.932Z,100593.50
2023-05-10T11:40:45.823Z,100602.25
2023-05-10T11:42:49.551Z,100604.19
2023-05-10T11:44:53.240Z,100606.41
2023-05-10T11:46:57.173Z,100609.63
2023-05-10T11:49:05.403Z,100612.28
2023-05-10T11:51:09.996Z,100601.88
2023-05-10T11:53:15.335Z,100607.88
2023-05-10T11:55:19.061Z,100614.56
2023-05-10T11:57:29.256Z,100609.66
2023-05-10T11:59:33.102Z,100613.00
2023-05-10T12:01:37.589Z,100613.53
2023-05-10T12:03:42.288Z,100617.88
2023-05-10T12:05:45.854Z,100613.97
2023-05-10T12:07:49.009Z,100611.63
2023-05-10T12:10:15.825Z,100606.38
2023-05-10T12:12:19.832Z,100610.03
2023-05-10T12:14:26.679Z,100603.13
2023-05-10T12:16:31.936Z,100602.13
2023-05-10T12:18:36.779Z,100603.00
2023-05-10T12:20:40.780Z,100602.53
2023-05-10T12:22:47.663Z,100611.13
2023-05-10T12:24:53.263Z,100613.13
2023-05-10T12:26:56.944Z,100610.63
2023-05-10T12:29:15.198Z,100619.09
2023-05-10T12:31:20.652Z,100620.19
2023-05-10T12:33:24.314Z,100611.63
2023-05-10T12:35:28.156Z,100627.47
2023-05-10T12:37:31.904Z,100616.19
2023-05-10T12:39:43.637Z,100624.72
2023-05-10T12:41:47.893Z,100618.91
2023-05-10T12:43:51.639Z,100618.28
2023-05-10T12:45:56.050Z,100612.88
2023-05-10T12:48:01.493Z,100622.25
2023-05-10T12:50:05.689Z,100623.78
2023-05-10T12:52:09.479Z,100628.00
2023-05-10T12:54:13.433Z,100627.13
2023-05-10T12:56:16.931Z,100632.63
2023-05-10T12:58:34.798Z,100624.75
2023-05-10T13:00:39.366Z,100638.13
2023-05-10T13:02:43.111Z,100643.97
2023-05-10T13:04:50.249Z,100630.75
2023-05-10T13:06:56.632Z,100640.06
2023-05-10T13:09:00.330Z,100635.88
2023-05-10T13:11:03.983Z,100627.75
2023-05-10T13:13:08.606Z,100621.88
2023-05-10T13:15:12.468Z,100627.28
2023-05-10T13:17:16.193Z,100633.22
2023-05-10T13:19:20.126Z,100628.22
2023-05-10T13:21:25.795Z,100628.28
2023-05-10T13:23:29.240Z,100623.75
2023-05-10T13:25:32.884Z,100627.88
2023-05-10T13:27:36.386Z,100615.38
2023-05-10T13:29:40.091Z,100614.03
2023-05-10T13:31:43.917Z,100622.53
2023-05-10T13:33:47.524Z,100612.47
2023-05-10T13:35:51.517Z,100612.47
2023-05-10T13:37:58.789Z,100610.25
2023-05-10T13:40:02.472Z,100614.34
2023-05-10T13:42:06.031Z,100605.47
2023-05-10T13:44:10.122Z,100604.81
2023-05-10T13:46:14.024Z,100604.38
2023-05-10T13:48:17.711Z,100605.25
2023-05-10T13:50:21.686Z,100606.06
2023-05-10T13:52:25.250Z,100610.88
2023-05-10T13:54:31.347Z,100604.09
2023-05-10T13:56:35.180Z,100599.47
2023-05-10T13:58:38.980Z,100604.53
2023-05-10T14:00:42.737Z,100608.88
2023-05-10T14:02:46.391Z,100611.84
2023-05-10T14:04:50.156Z,100613.34
2023-05-10T14:06:54.099Z,100619.53
2023-05-10T14:08:57.651Z,100615.53
2023-05-10T14:11:02.873Z,100615.66
2023-05-10T14:13:06.548Z,100611.25
2023-05-10T14:15:12.556Z,100610.41
2023-05-10T14:17:16.473Z,100610.13
2023-05-10T14:19:20.360Z,100609.88
2023-05-10T14:21:24.487Z,100602.59
2023-05-10T14:23:29.887Z,100607.22
2023-05-10T14:25:34.322Z,100604.44
2023-05-10T14:27:39.332Z,100596.44
2023-05-10T14:29:42.981Z,100597.41
2023-05-10T14:31:46.751Z,100596.44
2023-05-10T14:33:50.478Z,100595.28
2023-05-10T14:35:54.038Z,100592.38
2023-05-10T14:37:57.665Z,100602.09
2023-05-10T14:40:01.580Z,100599.81
2023-05-10T14:42:05.314Z,100590.81
2023-05-10T14:44:11.148Z,100604.34
2023-05-10T14:46:14.672Z,100587.06
2023-05-10T14:48:18.678Z,100584.38
2023-05-10T14:50:35.710Z,100597.28
2023-05-10T14:52:40.473Z,100588.00
2023-05-10T14:54:44.098Z,100582.94
2023-05-10T14:56:47.863Z,100589.94
2023-05-10T14:58:52.395Z,100595.28
2023-05-10T15:00:57.766Z,100586.88
2023-05-10T15:03:02.188Z,100592.97
2023-05-10T15:05:07.190Z,100599.03
2023-05-10T15:07:15.404Z,100593.44
2023-05-10T15:09:19.140Z,100587.38
2023-05-10T15:11:22.690Z,100600.75
2023-05-10T15:13:26.377Z,100597.66
2023-05-10T15:15:29.861Z,100601.31
2023-05-10T15:17:34.850Z,100606.81
2023-05-10T15:19:38.408Z,100603.41
2023-05-10T15:21:43.690Z,100596.25
2023-05-10T15:23:47.230Z,100600.34
2023-05-10T15:25:51.630Z,100597.56
2023-05-10T15:27:55.142Z,100610.59
2023-05-10T15:30:00.433Z,100623.13
2023-05-10T15:32:05.021Z,100617.03
2023-05-10T15:34:09.959Z,100620.06
2023-05-10T15:36:13.808Z,100617.06
2023-05-10T15:38:17.424Z,100621.00
2023-05-10T15:40:21.003Z,100631.22
2023-05-10T15:42:24.564Z,100622.53
2023-05-10T15:44:27.983Z,100620.13
2023-05-10T15:46:32.414Z,100610.41
2023-05-10T15:48:35.902Z,100618.28
2023-05-10T15:50:41.377Z,100609.88
2023-05-10T15:52:46.083Z,100608.19
2023-05-10T15:54:49.935Z,100601.44
2023-05-10T15:56:55.053Z,100610.13
2023-05-10T15:58:58.617Z,100607.59
2023-05-10T16:01:02.294Z,100604.81
2023-05-10T16:03:06.048Z,100587.09
2023-05-10T16:05:11.093Z,100601.44
2023-05-10T16:07:15.857Z,100602.56
2023-05-10T16:09:19.429Z,100604.94
2023-05-10T16:11:23.115Z,100609.03
2023-05-10T16:13:26.868Z,100620.03
2023-05-10T16:15:30.492Z,100615.13
2023-05-10T16:17:34.174Z,100621.88
2023-05-10T16:19:37.819Z,100612.75
2023-05-10T16:21:41.498Z,100613.47
2023-05-10T16:23:47.220Z,100621.59
2023-05-10T16:25:50.736Z,100623.69
2023-05-10T16:27:54.254Z,100624.81
2023-05-10T16:29:57.936Z,100623.13
2023-05-10T16:32:01.826Z,100626.34
2023-05-10T16:34:05.421Z,100626.34
2023-05-10T16:36:09.450Z,100632.56
2023-05-10T16:38:13.179Z,100634.22
2023-05-10T16:40:18.623Z,100634.66
2023-05-10T16:42:22.212Z,100638.56
2023-05-10T16:44:26.034Z,100646.84
2023-05-10T16:46:30.427Z,100640.94
2023-05-10T16:48:34.027Z,100642.19
2023-05-10T16:50:37.805Z,100645.81
2023-05-10T16:52:41.452Z,100645.25
2023-05-10T16:54:45.227Z,100633.72
2023-05-10T16:56:50.476Z,100643.69
2023-05-10T16:58:54.213Z,100644.06
2023-05-10T17:00:57.757Z,100647.16
2023-05-10T17:03:01.559Z,100647.28
2023-05-10T17:05:05.732Z,100640.38
2023-05-10T17:07:09.520Z,100646.97
2023-05-10T17:09:14.577Z,100650.88
2023-05-10T17:11:20.078Z,100647.94
2023-05-10T17:13:25.519Z,100647.56
2023-05-10T17:15:29.170Z,100653.47
2023-05-10T17:17:33.814Z,100653.22
2023-05-10T17:19:37.398Z,100655.16
2023-05-10T17:21:41.187Z,100654.31
2023-05-10T17:23:44.816Z,100653.72
2023-05-10T17:25:48.977Z,100652.91
2023-05-10T17:27:52.894Z,100657.25
2023-05-10T17:29:59.430Z,100656.13
2023-05-10T17:32:03.228Z,100650.66
2023-05-10T17:34:06.823Z,100656.13
2023-05-10T17:36:10.788Z,100660.78
2023-05-10T17:38:14.296Z,100667.59
2023-05-10T17:40:18.478Z,100679.78
2023-05-10T17:42:22.112Z,100685.97
2023-05-10T17:44:26.810Z,100685.31
2023-05-10T17:46:32.555Z,100679.91
2023-05-10T17:48:37.340Z,100672.56
2023-05-10T17:50:43.799Z,100671.47
2023-05-10T17:52:47.890Z,100677.72
2023-05-10T17:54:51.516Z,100691.97
2023-05-10T17:56:55.011Z,100677.91
2023-05-10T17:58:58.591Z,100679.75
2023-05-10T18:01:02.218Z,100686.19
2023-05-10T18:03:07.432Z,100678.44
2023-05-10T18:05:12.409Z,100682.34
2023-05-10T18:07:16.669Z,100688.31
2023-05-10T18:09:21.364Z,100693.31
2023-05-10T18:11:25.223Z,100691.59
2023-05-10T18:13:29.095Z,100681.47
2023-05-10T18:15:33.645Z,100679.41
2023-05-10T18:17:37.844Z,100682.22
2023-05-10T18:19:43.275Z,100686.81
2023-05-10T18:21:46.876Z,100686.81
2023-05-10T18:23:51.184Z,100682.47
2023-05-10T18:25:54.897Z,100691.94
2023-05-10T18:27:59.008Z,100696.69
2023-05-10T18:30:03.419Z,100691.00
2023-05-10T18:32:08.318Z,100702.13
2023-05-10T18:34:11.978Z,100697.31
2023-05-10T18:36:17.483Z,100692.13
2023-05-10T18:38:21.642Z,100695.88
2023-05-10T18:40:25.726Z,100700.34
2023-05-10T18:42:29.970Z,100702.28
2023-05-10T18:44:34.370Z,100717.09
2023-05-10T18:46:39.939Z,100731.13
2023-05-10T18:48:44.189Z,100734.63
2023-05-10T18:50:48.640Z,100734.34
2023-05-10T18:52:54.257Z,100729.75
2023-05-10T18:54:59.149Z,100737.25
2023-05-10T18:57:04.077Z,100731.31
2023-05-10T18:59:08.347Z,100728.88
2023-05-10T19:01:12.861Z,100730.94
2023-05-10T19:03:16.764Z,100733.84
2023-05-10T19:05:21.449Z,100736.59
2023-05-10T19:07:25.386Z,100733.84
2023-05-10T19:09:31.079Z,100740.97
2023-05-10T19:11:35.314Z,100738.19
2023-05-10T19:13:39.734Z,100741.72
2023-05-10T19:15:44.382Z,100739.88
2023-05-10T19:17:48.324Z,100740.72
2023-05-10T19:19:52.947Z,100740.97
2023-05-10T19:21:57.340Z,100745.72
2023-05-10T19:24:01.717Z,100745.78
2023-05-10T19:26:07.212Z,100750.41
2023-05-10T19:28:12.458Z,100750.53
2023-05-10T19:30:16.524Z,100743.63
2023-05-10T19:32:20.939Z,100740.47
2023-05-10T19:34:24.746Z,100741.78
2023-05-10T19:36:28.704Z,100743.09
2023-05-10T19:38:32.982Z,100756.00
2023-05-10T19:40:37.055Z,100747.63
2023-05-10T19:42:43.053Z,100756.69
2023-05-10T19:44:48.243Z,100754.28
2023-05-10T19:46:53.691Z,100756.41
2023-05-10T19:48:58.166Z,100765.34
2023-05-10T19:51:04.535Z,100769.09
2023-05-10T19:53:09.221Z,100765.59
2023-05-10T19:55:17.063Z,100775.28
2023-05-10T19:57:22.160Z,100771.13
2023-05-10T19:59:28.118Z,100778.38
2023-05-10T20:01:33.171Z,100779.56
2023-05-10T20:03:38.496Z,100779.06
2023-05-10T20:05:42.618Z,100778.44
2023-05-10T20:07:48.104Z,100773.34
2023-05-10T20:09:52.281Z,100782.50
2023-05-10T20:11:56.306Z,100783.56
2023-05-10T20:14:00.949Z,100777.41
2023-05-10T20:16:07.643Z,100785.47
2023-05-10T20:18:12.687Z,100776.66
2023-05-10T20:20:17.713Z,100780.16
2023-05-10T20:22:22.380Z,100777.00
2023-05-10T20:24:26.950Z,100772.78
2023-05-10T20:26:31.212Z,100767.53
2023-05-10T20:28:35.510Z,100764.16
2023-05-10T20:30:39.330Z,100770.53
2023-05-10T20:32:44.606Z,100765.66
2023-05-10T20:34:48.519Z,100762.59
2023-05-10T20:36:52.285Z,100761.31
2023-05-10T20:38:56.135Z,100768.97
2023-05-10T20:40:59.766Z,100767.72
2023-05-10T20:43:05.586Z,100766.47
2023-05-10T20:45:10.790Z,100766.88
2023-05-10T20:47:15.920Z,100771.66
2023-05-10T20:49:22.555Z,100763.94
2023-05-10T20:51:27.372Z,100771.16
2023-05-10T20:53:31.487Z,100774.78
2023-05-10T20:55:35.893Z,100778.38
2023-05-10T20:57:39.577Z,100780.31
2023-05-10T20:59:43.540Z,100783.69
2023-05-10T21:01:47.979Z,100787.28
2023-05-10T21:03:52.478Z,100786.44
2023-05-10T21:05:58.178Z,100790.91
2023-05-10T21:08:02.134Z,100783.78
2023-05-10T21:10:07.667Z,100792.59
2023-05-10T21:12:12.807Z,100798.78
2023-05-10T21:14:16.648Z,100798.88
2023-05-10T21:16:21.037Z,100793.69
2023-05-10T21:18:25.330Z,100798.13
2023-05-10T21:20:30.034Z,100801.72
2023-05-10T21:22:35.789Z,100801.72
2023-05-10T21:24:40.163Z,100804.38
2023-05-10T21:26:44.843Z,100804.47
2023-05-10T21:28:49.157Z,100808.97
2023-05-10T21:30:53.233Z,100802.88
2023-05-10T21:32:59.932Z,100802.16
2023-05-10T21:35:06.123Z,100808.31
2023-05-10T21:37:10.749Z,100801.31
2023-05-10T21:39:18.237Z,100805.66
2023-05-10T21:41:22.634Z,100810.84
2023-05-10T21:43:27.143Z,100808.84
2023-05-10T21:45:33.445Z,100814.91
2023-05-10T21:47:38.376Z,100822.75
2023-05-10T21:49:42.313Z,100816.47
2023-05-10T21:51:46.174Z,100818.06
2023-05-10T21:53:50.933Z,100815.31
2023-05-10T21:55:57.894Z,100817.00
2023-05-10T21:58:01.898Z,100824.75
2023-05-10T22:00:07.281Z,100828.16
2023-05-10T22:02:12.164Z,100819.44
2023-05-10T22:04:16.375Z,100824.69
2023-05-10T22:06:20.472Z,100823.81
2023-05-10T22:08:24.559Z,100824.56
2023-05-10T22:10:28.887Z,100818.28
2023-05-10T22:12:34.930Z,100820.84
2023-05-10T22:14:38.988Z,100821.69
2023-05-10T22:16:44.468Z,100821.69
2023-05-10T22:18:48.725Z,100825.19
2023-05-10T22:20:52.752Z,100816.28
2023-05-10T22:22:57.400Z,100819.88
2023-05-10T22:25:01.518Z,100819.16
2023-05-10T22:27:06.265Z,100820.00
2023-05-10T22:29:12.078Z,100813.94
2023-05-10T22:31:16.826Z,100821.03
2023-05-10T22:33:21.365Z,100820.22
2023-05-10T22:35:25.789Z,100818.50
2023-05-10T22:37:30.118Z,100815.97
2023-05-10T22:39:35.100Z,100818.72
2023-05-10T22:41:39.711Z,100821.47
2023-05-10T22:43:45.089Z,100815.53
2023-05-10T22:45:50.663Z,100808.50
2023-05-10T22:47:55.443Z,100812.97
2023-05-10T22:49:59.884Z,100818.41
2023-05-10T22:52:03.881Z,100816.81
2023-05-10T22:54:09.120Z,100824.78
2023-05-10T22:56:13.402Z,100822.00
2023-05-10T22:58:18.946Z,100822.94
2023-05-10T23:00:23.365Z,100830.06
2023-05-10T23:02:29.103Z,100822.94
2023-05-10T23:04:33.401Z,100828.91
2023-05-10T23:06:37.423Z,100831.69
2023-05-10T23:08:41.546Z,100830.63
2023-05-10T23:10:45.648Z,100834.09
2023-05-10T23:12:49.658Z,100826.16
2023-05-10T23:14:53.707Z,100826.03
2023-05-10T23:16:58.042Z,100827.84
2023-05-10T23:19:03.706Z,100825.31
2023-05-10T23:21:08.120Z,100833.38
2023-05-10T23:23:12.065Z,100829.13
2023-05-10T23:25:16.010Z,100822.94
2023-05-10T23:27:20.397Z,100823.81
2023-05-10T23:29:26.791Z,100820.28
2023-05-10T23:31:30.861Z,100823.06
2023-05-10T23:33:35.376Z,100812.78
2023-05-10T23:35:41.195Z,100826.03
2023-05-10T23:37:44.827Z,100820.31
2023-05-10T23:39:48.888Z,100822.31
2023-05-10T23:41:53.115Z,100828.66
2023-05-10T23:43:57.074Z,100831.44
2023-05-10T23:46:02.213Z,100824.44
2023-05-10T23:48:06.252Z,100828.88
2023-05-10T23:50:11.404Z,100833.34